• pl
  • eng

Awiacja
TAF dla lotnisk wojskowych 19:30 24.05.2019

TAF EPCE 241700Z 2418/2503 21006KT CAVOK=

TAF EPDA 241700Z 2418/2503 27006KT CAVOK
TEMPO 2418/2421 VRB02KT
PROB40 2500/2503 BKN015=

TAF EPKS 241700Z 2418/2503 25006KT CAVOK=

TAF EPKS 302300Z 3100/3109 33006KT CAVOK=

TAF EPLY 241700Z 2418/2503 VRB04KT CAVOK=

TAF AMD EPMB 241800Z 2418/2503 CNL=

TAF EPMB 030500Z 27014KT 9999 SCT035 BKN100 TEMPO 0307/0315 SHRA
BKN025CB BECMG 0312/0315 28006KT=

TAF EPMI 241700Z 2418/2503 24008KT CAVOK
BECMG 2500/2503 30008KT=

TAF EPMI 302300Z 3100/3109 33008KT CAVOK=

TAF EPMM 241700Z 2418/2503 32005KT CAVOK=

TAF EPOK 241700Z 2418/2503 13004KT CAVOK BECMG 2420/2422 25008KT=

TAF EPPW 241700Z 2418/2503 23006KT CAVOK=

TAF AMD EPRA 241835Z 2418/2503 CNL=

TAF EPSN 241700Z 2418/2503 23008KT CAVOK BECMG 2422/2501 29008KT=

TAF AMD EPTM 241710Z 2418/2503 CNL=

TAF AMD EPTM 241710Z 2418/2503 CNL =
Awiacja.imgw.pl jest pogodowym serwisem informacyjnym
Instytutu Meteorologii i Gospodarki Wodnej Państwowego Instytutu Badawczego.
Copyright IMGW PIB 2009-2011© Wszelkie prawa zastrzeżone.